Geisenheim, Germany

2:01 AM CET on March 25, 2017 (GMT +0100)
Geisenheim, Im Schorchen | | Change Station

Elev 124 ft 49.99 °N, 7.95 °E | Updated 14 seconds ago

Overcast
Overcast
44.1 °F
Feels Like 44 °F
N
0.0
Wind Variable Wind from SSW
Gusts 0.0 mph

Today
High -- | Low -- °F
--% Chance of Precip.
Yesterday
High -- | Low -- °F
Precip. -- in
Pressure 30.41 in
Visibility 6.2 miles
Clouds Clear
Windchill 44 °F
Dew Point 37 °F
Humidity 75%
Rainfall 0.00 in
Snow Depth Not available.
6:19 AM 6:49 PM
Waning Crescent, 12% visible
METAR ETOU 250058Z AUTO 03005KT 9999 CLR 08/02 A3040 RMK AO2 SLP298 T00780017
Pressure 30.41 in
Visibility 6.2 miles
Clouds Clear
Windchill 44 °F
Dew Point 37 °F
Humidity 75%
Rainfall 0.00 in
Snow Depth Not available.
6:19 AM 6:49 PM
Waning Crescent, 12% visible
METAR ETOU 250058Z AUTO 03005KT 9999 CLR 08/02 A3040 RMK AO2 SLP298 T00780017

Get Severe Weather Alerts

Thanks for signing up!

Be on the lookout for a verification email in your inbox.

You'll start receiving the daily forecast at 8 AM.

×

10-Day Weather Forecast

×

Almanac

Astronomy

Mar. 25, 2017 Rise Set
Actual Time
Civil Twilight
Nautical Twilight
Astronomical Twilight
Moon
Length of Visible Light
Length of Day
Tomorrow will be .
, % of the Moon is Illuminated

Today's Extremes

Country Highs Country Lows

Community

WunderPhotos

Upload Photos

1,962,540 photos uploaded!

WunderBlog® & News

Nearby

Air Quality

  Air Quality AQ Index Pollutant
Not available.

Snow Depth

Station Depth Elevation

Earthquake Activity

City Distance Mag. Time & Date
Minimum magnitude displayed is 2.5.

Earthquake Activity

City Distance Mag. Time & Date
Minimum magnitude displayed is 2.5.

Coastal Water Temperatures

Place Temperature

Stations

Nearby Weather Stations

Station Location Temp. Windchill Dew Point Humidity Wind Precip. Elev Updated Type